Time;durP1;ratioP1;P1;durP2;ratioP2;P2;SDS_P1;SDS_P2;PMS_P1;PMS_P2;Temp;Humidity;BMP_temperature;BMP_pressure;BME280_temperature;BME280_humidity;BME280_pressure;Samples;Min_cycle;Max_cycle;Signal;HPM_P1;HPM_P2
2022/10/10 00:01:18;;;;;;;4.90;3.47;;;11.30;99.90;;;;;;5051471;28;20209;-56
2022/10/10 00:03:47;;;;;;;5.10;3.33;;;11.30;99.90;;;;;;5051859;28;20241;-55
2022/10/10 00:06:15;;;;;;;5.20;3.47;;;11.30;99.90;;;;;;5051802;28;20198;-55
2022/10/10 00:08:42;;;;;;;6.10;3.97;;;11.30;99.90;;;;;;5051878;28;20673;-56
2022/10/10 00:11:10;;;;;;;7.73;3.63;;;11.30;99.90;;;;;;5051384;28;20241;-56
2022/10/10 00:13:37;;;;;;;7.33;3.60;;;11.30;99.90;;;;;;5051664;28;20712;-55
2022/10/10 00:16:04;;;;;;;8.60;3.77;;;11.40;99.90;;;;;;5051770;28;20284;-55
2022/10/10 00:18:32;;;;;;;3.63;3.30;;;11.30;99.90;;;;;;5051593;28;20210;-55
2022/10/10 00:21:00;;;;;;;7.00;3.83;;;11.40;99.90;;;;;;5051254;28;20206;-55
2022/10/10 00:23:27;;;;;;;6.67;3.30;;;11.40;99.90;;;;;;5051743;28;20229;-54
2022/10/10 00:25:54;;;;;;;5.93;3.87;;;11.30;99.90;;;;;;5051791;28;20198;-55
2022/10/10 00:28:21;;;;;;;6.83;3.30;;;11.30;99.90;;;;;;5052139;28;20617;-58
2022/10/10 00:30:47;;;;;;;4.80;3.50;;;11.30;99.90;;;;;;5051059;28;20209;-57
2022/10/10 00:33:15;;;;;;;5.57;3.87;;;11.40;99.90;;;;;;5051327;28;20578;-55
2022/10/10 00:35:42;;;;;;;4.77;3.70;;;11.40;99.90;;;;;;5051403;28;20232;-55
2022/10/10 00:38:10;;;;;;;7.67;3.87;;;11.50;99.90;;;;;;5051629;28;20722;-55
2022/10/10 00:40:45;;;;;;;7.10;3.80;;;11.50;99.90;;;;;;5051009;28;20213;-57
2022/10/10 00:43:13;;;;;;;5.37;3.80;;;11.60;99.90;;;;;;5051435;28;20201;-55
2022/10/10 00:45:42;;;;;;;8.07;3.90;;;11.60;99.90;;;;;;5051459;28;20587;-55
2022/10/10 00:48:12;;;;;;;6.17;4.10;;;11.70;99.90;;;;;;5051747;28;20210;-56
2022/10/10 00:50:43;;;;;;;6.70;3.77;;;11.70;99.90;;;;;;5050950;28;20213;-55
2022/10/10 00:53:14;;;;;;;8.33;3.83;;;11.70;99.90;;;;;;5051482;28;20567;-57
2022/10/10 00:55:42;;;;;;;6.37;4.10;;;11.60;99.90;;;;;;5051484;28;20253;-55
2022/10/10 00:58:10;;;;;;;5.87;3.63;;;11.70;99.90;;;;;;5051311;28;20217;-55
2022/10/10 01:00:36;;;;;;;5.90;3.70;;;11.70;99.90;;;;;;5050977;28;20216;-56
2022/10/10 01:03:03;;;;;;;6.67;4.57;;;11.70;99.90;;;;;;5051571;28;20237;-56
2022/10/10 01:05:30;;;;;;;6.63;4.00;;;11.70;99.90;;;;;;5051605;28;20202;-56
2022/10/10 01:07:58;;;;;;;7.40;4.00;;;11.70;99.90;;;;;;5051868;28;20205;-55
2022/10/10 01:10:26;;;;;;;5.83;4.03;;;11.70;99.90;;;;;;5050799;28;20213;-55
2022/10/10 01:13:04;;;;;;;7.33;4.43;;;11.80;99.90;;;;;;5051096;28;20212;-55
2022/10/10 01:15:42;;;;;;;5.27;4.47;;;11.80;99.90;;;;;;5051344;28;20229;-55
2022/10/10 01:18:17;;;;;;;7.00;4.40;;;11.80;99.90;;;;;;5051513;28;20212;-55
2022/10/10 01:20:58;;;;;;;5.50;3.93;;;11.80;99.90;;;;;;5050663;28;20216;-57
2022/10/10 01:24:15;;;;;;;6.23;4.10;;;11.80;99.90;;;;;;5051422;28;20264;-55
2022/10/10 01:27:08;;;;;;;5.80;4.30;;;11.80;99.90;;;;;;5051000;28;20800;-56
2022/10/10 01:29:42;;;;;;;4.97;3.87;;;11.80;99.90;;;;;;5051201;28;20210;-56
2022/10/10 01:32:13;;;;;;;5.37;4.30;;;11.70;99.90;;;;;;5052932;28;20206;-55
2022/10/10 01:34:50;;;;;;;4.83;4.10;;;11.80;99.90;;;;;;5078929;22;20708;-55
2022/10/10 01:37:19;;;;;;;6.33;4.23;;;11.80;99.90;;;;;;5055293;28;20312;-56
2022/10/10 01:39:55;;;;;;;6.50;4.27;;;11.80;99.90;;;;;;5055199;28;20216;-57
2022/10/10 01:42:28;;;;;;;9.10;4.43;;;11.80;99.90;;;;;;5055109;28;20640;-57
2022/10/10 01:44:56;;;;;;;7.10;4.30;;;11.80;99.90;;;;;;5055538;28;20310;-57
2022/10/10 01:47:24;;;;;;;6.30;4.37;;;11.80;99.90;;;;;;5055253;28;20216;-57
2022/10/10 01:49:55;;;;;;;5.77;4.23;;;11.80;99.90;;;;;;5055218;28;20213;-56
2022/10/10 01:52:43;;;;;;;6.00;4.27;;;11.80;99.90;;;;;;5054465;28;20227;-57
2022/10/10 01:55:25;;;;;;;6.57;4.60;;;11.90;99.90;;;;;;5054670;28;20229;-57
2022/10/10 01:58:03;;;;;;;7.50;4.47;;;11.90;99.90;;;;;;5054921;28;20217;-57
2022/10/10 02:00:40;;;;;;;8.43;4.40;;;12.00;99.90;;;;;;5054608;28;20209;-57
2022/10/10 02:03:13;;;;;;;6.60;3.97;;;12.00;99.90;;;;;;5055066;28;20292;-57
2022/10/10 02:05:46;;;;;;;6.17;4.50;;;12.00;99.90;;;;;;5054727;28;20232;-57
2022/10/10 02:08:20;;;;;;;5.63;4.07;;;12.00;99.90;;;;;;5054966;28;20255;-56
2022/10/10 02:10:49;;;;;;;6.53;4.80;;;12.00;99.90;;;;;;5054084;28;20644;-57
2022/10/10 02:13:18;;;;;;;7.00;4.30;;;12.10;99.90;;;;;;5054039;28;20233;-57
2022/10/10 02:15:50;;;;;;;5.33;4.50;;;12.10;99.90;;;;;;5054318;28;20320;-57
2022/10/10 02:18:21;;;;;;;7.00;4.60;;;12.10;99.90;;;;;;5054603;28;20287;-57
2022/10/10 02:20:49;;;;;;;6.90;5.10;;;12.00;99.90;;;;;;5054011;28;20738;-57
2022/10/10 02:23:19;;;;;;;6.53;4.00;;;12.00;99.90;;;;;;5054401;28;20205;-57
2022/10/10 02:25:50;;;;;;;8.43;4.67;;;12.00;99.90;;;;;;5054343;28;20229;-57
2022/10/10 02:28:21;;;;;;;9.33;4.50;;;12.00;99.90;;;;;;5054579;28;20214;-57
2022/10/10 02:30:51;;;;;;;5.97;3.90;;;12.00;99.90;;;;;;5053663;28;20237;-56
2022/10/10 02:33:25;;;;;;;6.50;4.57;;;12.00;99.90;;;;;;5054211;28;20220;-56
2022/10/10 02:35:53;;;;;;;7.97;4.77;;;11.90;99.90;;;;;;5054052;28;20234;-56
2022/10/10 02:38:20;;;;;;;7.77;4.53;;;11.90;99.90;;;;;;5054122;28;20209;-55
2022/10/10 02:40:49;;;;;;;6.67;4.63;;;11.90;99.90;;;;;;5054469;28;20220;-57
2022/10/10 02:43:17;;;;;;;7.17;4.53;;;12.00;99.90;;;;;;5054378;28;20213;-56
2022/10/10 02:45:44;;;;;;;8.40;4.43;;;12.00;99.90;;;;;;5054736;28;20218;-55
2022/10/10 02:48:12;;;;;;;9.13;5.00;;;12.00;99.90;;;;;;5054881;28;20224;-56
2022/10/10 02:50:39;;;;;;;6.50;4.57;;;12.10;99.90;;;;;;5054378;28;20205;-56
2022/10/10 02:53:06;;;;;;;9.33;4.80;;;12.10;99.90;;;;;;5055800;28;20571;-56
2022/10/10 02:55:32;;;;;;;5.80;5.00;;;12.10;99.90;;;;;;5054615;28;20222;-56
2022/10/10 02:57:59;;;;;;;8.43;4.60;;;12.10;99.90;;;;;;5053806;28;20216;-56
2022/10/10 03:00:26;;;;;;;6.57;4.47;;;12.20;99.90;;;;;;5053431;28;20313;-56
2022/10/10 03:02:53;;;;;;;7.57;4.67;;;12.30;99.90;;;;;;5053867;28;20205;-56
2022/10/10 03:05:21;;;;;;;6.30;4.43;;;12.30;99.90;;;;;;5053546;28;20230;-56
2022/10/10 03:07:47;;;;;;;6.07;4.90;;;12.30;99.90;;;;;;5053957;28;20209;-56
2022/10/10 03:10:14;;;;;;;7.27;4.90;;;12.20;99.90;;;;;;5053012;28;20209;-56
2022/10/10 03:12:41;;;;;;;10.73;5.03;;;12.20;99.90;;;;;;5053426;28;20216;-56
2022/10/10 03:15:08;;;;;;;6.70;5.00;;;12.20;99.90;;;;;;5053150;28;20232;-56
2022/10/10 03:17:35;;;;;;;6.33;5.07;;;12.10;99.90;;;;;;5053040;28;20240;-56
2022/10/10 03:20:02;;;;;;;6.73;4.90;;;12.00;99.90;;;;;;5053196;28;20209;-56
2022/10/10 03:22:30;;;;;;;11.50;5.17;;;12.00;99.90;;;;;;5052901;28;20202;-56
2022/10/10 03:24:57;;;;;;;12.80;5.50;;;11.90;99.90;;;;;;5052962;28;20230;-56
2022/10/10 03:27:24;;;;;;;8.03;5.20;;;12.00;99.90;;;;;;5053253;28;20212;-56
2022/10/10 03:29:50;;;;;;;10.33;5.50;;;11.90;99.90;;;;;;5053287;28;20213;-56
2022/10/10 03:32:17;;;;;;;11.53;6.93;;;12.20;99.90;;;;;;5052368;28;20296;-56
2022/10/10 03:34:44;;;;;;;6.80;5.47;;;12.10;99.90;;;;;;5052706;28;20739;-56
2022/10/10 03:37:11;;;;;;;11.50;5.50;;;12.10;99.90;;;;;;5053019;28;20258;-56
2022/10/10 03:39:39;;;;;;;8.90;5.53;;;12.20;99.90;;;;;;5052963;28;20212;-56
2022/10/10 03:42:06;;;;;;;9.53;5.50;;;12.20;99.90;;;;;;5052370;28;20205;-56
2022/10/10 03:44:32;;;;;;;10.10;5.07;;;12.20;99.90;;;;;;5052664;28;20225;-57
2022/10/10 03:46:59;;;;;;;6.77;5.57;;;12.20;99.90;;;;;;5052667;28;20213;-57
2022/10/10 03:49:26;;;;;;;8.27;5.47;;;12.20;99.90;;;;;;5052970;28;20205;-57
2022/10/10 03:51:53;;;;;;;7.57;5.47;;;12.20;99.90;;;;;;5052331;28;20206;-57
2022/10/10 03:54:20;;;;;;;8.23;5.53;;;12.20;99.90;;;;;;5052412;28;20229;-57
2022/10/10 03:56:48;;;;;;;8.07;5.13;;;12.10;99.90;;;;;;5053563;28;20616;-57
2022/10/10 03:59:15;;;;;;;7.17;5.33;;;12.00;99.90;;;;;;5053658;28;20202;-57
2022/10/10 04:01:42;;;;;;;7.20;5.80;;;11.90;99.90;;;;;;5052913;28;20213;-57
2022/10/10 04:04:08;;;;;;;9.97;5.60;;;11.90;99.90;;;;;;5052425;28;20232;-56
2022/10/10 04:06:35;;;;;;;10.43;6.93;;;11.90;99.90;;;;;;5052212;28;20213;-57
2022/10/10 04:09:03;;;;;;;8.13;6.03;;;11.90;99.90;;;;;;5052552;28;20677;-57
2022/10/10 04:11:29;;;;;;;9.00;5.83;;;11.90;99.90;;;;;;5051736;28;20296;-57
2022/10/10 04:13:58;;;;;;;9.10;6.10;;;12.00;99.90;;;;;;5052363;28;20240;-57
2022/10/10 04:16:24;;;;;;;13.53;6.57;;;12.10;99.90;;;;;;5052218;28;20230;-57
2022/10/10 04:18:51;;;;;;;9.30;6.20;;;12.10;99.90;;;;;;5052227;28;20216;-57
2022/10/10 04:21:18;;;;;;;6.93;5.57;;;12.10;99.90;;;;;;5052180;28;20429;-57
2022/10/10 04:23:45;;;;;;;8.13;5.57;;;12.20;99.90;;;;;;5052499;28;20236;-57
2022/10/10 04:26:11;;;;;;;9.80;6.63;;;12.20;99.90;;;;;;5052345;28;20212;-57
2022/10/10 04:28:38;;;;;;;10.27;6.27;;;12.10;99.90;;;;;;5052501;28;20201;-57
2022/10/10 04:31:07;;;;;;;8.30;5.57;;;12.00;99.90;;;;;;5052464;28;20205;-57
2022/10/10 04:33:33;;;;;;;7.33;5.53;;;12.00;99.90;;;;;;5053325;28;20213;-56
2022/10/10 04:36:00;;;;;;;7.43;5.60;;;12.00;99.90;;;;;;5053526;28;20293;-57
2022/10/10 04:38:28;;;;;;;9.80;6.03;;;11.90;99.90;;;;;;5052902;28;20670;-56
2022/10/10 04:40:55;;;;;;;10.13;6.30;;;11.80;99.90;;;;;;5052226;28;20578;-58
2022/10/10 04:43:22;;;;;;;9.63;6.00;;;11.90;99.90;;;;;;5052881;28;20205;-57
2022/10/10 04:45:48;;;;;;;8.50;5.90;;;11.90;99.90;;;;;;5052736;28;20232;-57
2022/10/10 04:48:17;;;;;;;8.47;5.87;;;12.00;99.90;;;;;;5052934;28;20212;-57
2022/10/10 04:50:43;;;;;;;9.53;6.20;;;12.10;99.90;;;;;;5052805;28;20197;-57
2022/10/10 04:53:10;;;;;;;9.23;6.20;;;12.10;99.90;;;;;;5053216;28;20297;-57
2022/10/10 04:55:37;;;;;;;9.07;6.00;;;12.10;99.90;;;;;;5053223;28;20256;-56
2022/10/10 04:58:04;;;;;;;9.90;6.07;;;12.20;99.90;;;;;;5052619;28;20221;-56
2022/10/10 05:00:31;;;;;;;9.20;5.53;;;12.10;99.90;;;;;;5052257;28;20202;-57
2022/10/10 05:02:58;;;;;;;10.17;6.13;;;12.20;99.90;;;;;;5052520;28;20590;-57
2022/10/10 05:05:26;;;;;;;8.30;6.00;;;12.20;99.90;;;;;;5052499;28;20226;-57
2022/10/10 05:07:53;;;;;;;7.00;5.70;;;12.20;99.90;;;;;;5055810;28;20205;-57
2022/10/10 05:10:19;;;;;;;7.77;5.20;;;12.10;99.90;;;;;;5056054;28;20697;-56
2022/10/10 05:12:46;;;;;;;7.43;5.43;;;12.00;99.90;;;;;;5056644;28;20212;-57
2022/10/10 05:15:13;;;;;;;9.23;6.67;;;12.00;99.90;;;;;;5056841;28;20308;-57
2022/10/10 05:17:40;;;;;;;12.77;6.60;;;11.90;99.90;;;;;;5056891;28;20316;-56
2022/10/10 05:20:07;;;;;;;7.43;5.40;;;11.90;99.90;;;;;;5056850;28;20232;-56
2022/10/10 05:22:36;;;;;;;7.60;6.40;;;12.00;99.90;;;;;;5056564;28;20205;-56
2022/10/10 05:25:03;;;;;;;8.23;5.70;;;12.00;99.90;;;;;;5056663;28;20229;-57
2022/10/10 05:27:30;;;;;;;9.43;6.17;;;12.10;99.90;;;;;;5056528;28;20692;-57
2022/10/10 05:29:57;;;;;;;7.90;5.67;;;12.10;99.90;;;;;;5056666;28;20669;-57
2022/10/10 05:32:23;;;;;;;7.27;5.77;;;12.10;99.90;;;;;;5056440;28;20224;-58
2022/10/10 05:34:50;;;;;;;9.17;5.47;;;12.00;99.90;;;;;;5056003;28;20252;-56
2022/10/10 05:37:17;;;;;;;10.70;6.07;;;12.00;99.90;;;;;;5056078;28;20229;-56
2022/10/10 05:39:47;;;;;;;9.27;6.27;;;12.00;99.90;;;;;;5056325;28;20213;-57
2022/10/10 05:42:13;;;;;;;11.13;6.40;;;11.90;99.90;;;;;;5055683;28;20538;-57
2022/10/10 05:44:41;;;;;;;10.37;6.27;;;11.90;99.90;;;;;;5055865;28;20221;-57
2022/10/10 05:47:08;;;;;;;10.87;6.70;;;11.90;99.90;;;;;;5056402;28;20202;-57
2022/10/10 05:49:35;;;;;;;8.77;6.30;;;11.90;99.90;;;;;;5056333;28;20211;-57
2022/10/10 05:52:02;;;;;;;6.97;6.27;;;11.90;99.90;;;;;;5056108;28;20688;-57
2022/10/10 05:54:29;;;;;;;11.40;6.30;;;11.90;99.90;;;;;;5056504;28;20233;-56
2022/10/10 05:56:58;;;;;;;10.97;6.90;;;11.90;99.90;;;;;;5056506;28;20226;-57
2022/10/10 05:59:25;;;;;;;13.40;6.93;;;12.00;99.90;;;;;;5056051;28;20233;-57
2022/10/10 06:01:51;;;;;;;9.17;6.53;;;12.10;99.90;;;;;;5055407;28;20210;-57
2022/10/10 06:04:18;;;;;;;9.83;6.67;;;12.10;99.90;;;;;;5055629;28;20297;-57
2022/10/10 06:06:45;;;;;;;8.57;6.30;;;12.10;99.90;;;;;;5055430;28;20202;-57
2022/10/10 06:09:12;;;;;;;8.43;5.70;;;12.00;99.90;;;;;;5055384;28;20227;-58
2022/10/10 06:11:39;;;;;;;8.53;6.10;;;12.00;99.90;;;;;;5055060;28;20260;-56
2022/10/10 06:14:08;;;;;;;8.73;5.90;;;12.10;99.90;;;;;;5055716;28;20229;-58
2022/10/10 06:16:38;;;;;;;12.13;6.33;;;12.20;99.90;;;;;;5054754;28;20206;-58
2022/10/10 06:19:05;;;;;;;10.57;6.33;;;12.30;99.90;;;;;;5055473;28;20296;-58
2022/10/10 06:21:32;;;;;;;11.13;6.27;;;12.50;99.90;;;;;;5055281;28;20205;-57
2022/10/10 06:23:59;;;;;;;9.40;6.57;;;12.60;99.90;;;;;;5055818;28;20237;-58
2022/10/10 06:26:26;;;;;;;11.40;6.40;;;12.70;99.90;;;;;;5055388;28;20216;-57
2022/10/10 06:28:53;;;;;;;8.30;6.53;;;12.80;99.90;;;;;;5054348;28;20289;-62
2022/10/10 06:31:22;;;;;;;7.30;6.13;;;13.00;99.90;;;;;;5049410;28;20206;-57
2022/10/10 06:33:48;;;;;;;8.33;6.17;;;13.20;99.90;;;;;;5052944;28;20237;-58
2022/10/10 06:36:16;;;;;;;11.83;6.43;;;13.30;99.90;;;;;;5053610;28;20217;-58
2022/10/10 06:38:45;;;;;;;11.60;5.47;;;13.30;99.90;;;;;;5052695;28;20229;-58
2022/10/10 06:41:12;;;;;;;8.50;5.43;;;13.40;99.90;;;;;;5051523;28;20209;-59
2022/10/10 06:43:41;;;;;;;7.67;5.07;;;13.50;99.90;;;;;;5052395;28;20359;-57
2022/10/10 06:46:08;;;;;;;8.33;5.67;;;13.70;99.90;;;;;;5053493;28;20213;-58
2022/10/10 06:48:37;;;;;;;8.23;5.63;;;13.80;99.90;;;;;;5055844;28;20208;-63
2022/10/10 06:51:05;;;;;;;8.10;5.73;;;14.00;99.90;;;;;;5054791;28;20658;-55
2022/10/10 06:53:33;;;;;;;8.43;5.47;;;14.20;99.90;;;;;;5053850;28;20608;-55
2022/10/10 06:56:00;;;;;;;7.07;5.33;;;14.40;99.90;;;;;;5054725;28;20213;-56
2022/10/10 06:58:29;;;;;;;8.43;5.70;;;14.50;99.90;;;;;;5054772;28;20693;-58
2022/10/10 07:00:58;;;;;;;9.00;5.43;;;14.50;99.90;;;;;;5056431;28;20201;-59
2022/10/10 07:03:25;;;;;;;7.97;4.97;;;14.50;99.90;;;;;;5055168;28;20209;-59
2022/10/10 07:05:55;;;;;;;8.37;5.57;;;14.70;99.90;;;;;;5055199;28;20581;-55
2022/10/10 07:08:22;;;;;;;12.97;5.93;;;14.70;99.90;;;;;;5054482;28;20678;-57
2022/10/10 07:10:49;;;;;;;7.80;5.10;;;14.80;99.90;;;;;;5054219;28;20205;-57
2022/10/10 07:13:16;;;;;;;8.27;5.77;;;14.90;99.90;;;;;;5053707;28;20259;-58
2022/10/10 07:15:43;;;;;;;8.10;6.13;;;15.00;99.90;;;;;;5053599;28;20240;-58
2022/10/10 07:18:11;;;;;;;6.40;5.27;;;15.10;99.90;;;;;;5053402;28;20241;-57
2022/10/10 07:20:39;;;;;;;5.93;5.07;;;15.10;99.90;;;;;;5052226;28;20266;-56
2022/10/10 07:23:08;;;;;;;9.07;5.40;;;15.10;99.90;;;;;;5052627;28;20639;-60
2022/10/10 07:25:37;;;;;;;7.33;5.57;;;15.40;99.90;;;;;;5054087;28;20225;-63
2022/10/10 07:28:04;;;;;;;6.90;4.67;;;15.70;99.90;;;;;;5053658;28;20672;-58
2022/10/10 07:30:31;;;;;;;7.17;4.97;;;15.70;99.90;;;;;;5051755;28;20213;-58
2022/10/10 07:32:58;;;;;;;5.33;4.53;;;15.60;99.90;;;;;;5052360;28;20235;-57
2022/10/10 07:35:25;;;;;;;5.40;4.67;;;15.50;99.90;;;;;;5068569;22;20237;-62
2022/10/10 07:37:54;;;;;;;9.53;4.30;;;15.40;99.90;;;;;;5047535;28;20226;-59
2022/10/10 07:40:23;;;;;;;6.83;4.70;;;15.40;99.90;;;;;;5051198;28;20283;-61
2022/10/10 07:42:49;;;;;;;7.20;4.37;;;15.50;99.90;;;;;;5050064;28;20688;-60
2022/10/10 07:45:16;;;;;;;7.53;4.60;;;15.80;99.90;;;;;;5051152;28;20225;-61
2022/10/10 07:47:43;;;;;;;7.63;4.30;;;16.10;99.90;;;;;;5051658;28;20198;-61
2022/10/10 07:50:11;;;;;;;4.47;3.92;;;16.50;99.90;;;;;;5051540;28;20212;-60
2022/10/10 07:52:38;;;;;;;4.67;4.03;;;16.90;99.90;;;;;;5050851;28;20206;-60
2022/10/10 07:55:06;;;;;;;5.18;3.88;;;17.00;99.90;;;;;;5050512;28;20229;-61
2022/10/10 07:57:35;;;;;;;5.90;4.43;;;17.00;99.90;;;;;;5051345;28;20283;-62
2022/10/10 08:00:03;;;;;;;5.63;4.33;;;17.00;99.90;;;;;;5051210;28;20213;-59
2022/10/10 08:02:30;;;;;;;6.43;4.22;;;17.10;99.90;;;;;;5050559;28;20209;-59
2022/10/10 08:04:56;;;;;;;9.95;4.70;;;17.30;99.90;;;;;;5050496;28;20736;-60
2022/10/10 08:07:23;;;;;;;7.45;4.30;;;17.40;99.90;;;;;;5050736;28;20209;-60
2022/10/10 08:09:50;;;;;;;6.93;3.87;;;17.40;99.90;;;;;;5050685;28;20693;-60
2022/10/10 08:12:17;;;;;;;6.15;4.30;;;17.40;99.90;;;;;;5050557;28;20205;-60
2022/10/10 08:14:45;;;;;;;6.88;4.20;;;17.50;99.90;;;;;;5050374;28;20226;-60
2022/10/10 08:17:11;;;;;;;6.28;4.30;;;17.60;99.90;;;;;;5050935;28;20205;-60
2022/10/10 08:19:38;;;;;;;7.43;4.15;;;17.60;99.90;;;;;;5050584;28;20212;-61
2022/10/10 08:22:05;;;;;;;8.00;4.00;;;17.70;99.90;;;;;;5050001;28;20665;-60
2022/10/10 08:24:32;;;;;;;7.00;4.00;;;17.70;99.90;;;;;;5050343;28;20233;-61
2022/10/10 08:26:59;;;;;;;8.50;4.05;;;17.80;99.90;;;;;;5050851;28;20213;-60
2022/10/10 08:29:25;;;;;;;6.38;3.85;;;18.00;99.90;;;;;;5051045;28;20197;-61
2022/10/10 08:31:54;;;;;;;6.28;4.22;;;18.10;99.90;;;;;;5049803;28;20217;-62
2022/10/10 08:34:20;;;;;;;5.60;3.17;;;18.30;99.90;;;;;;5050066;28;20234;-66
2022/10/10 08:36:47;;;;;;;6.05;3.60;;;18.40;99.90;;;;;;5050859;28;20205;-63
2022/10/10 08:39:14;;;;;;;5.63;3.70;;;18.50;99.90;;;;;;5050878;28;20221;-61
2022/10/10 08:41:46;;;;;;;8.68;3.65;;;18.60;99.90;;;;;;5053166;28;20554;-62
2022/10/10 08:44:19;;;;;;;8.88;3.28;;;18.60;99.90;;;;;;5053985;28;20827;-61
2022/10/10 08:46:49;;;;;;;8.20;3.40;;;18.70;99.90;;;;;;5054683;28;20205;-60
2022/10/10 08:49:24;;;;;;;3.92;2.75;;;18.90;99.90;;;;;;5054727;28;20240;-58
2022/10/10 08:51:59;;;;;;;4.13;2.80;;;19.00;99.90;;;;;;5054222;28;20213;-61
2022/10/10 08:54:26;;;;;;;11.13;3.70;;;19.00;99.90;;;;;;5054105;28;20286;-61
2022/10/10 08:56:56;;;;;;;3.05;2.30;;;19.10;99.90;;;;;;5054135;28;20209;-61
2022/10/10 08:59:26;;;;;;;6.03;2.85;;;19.40;99.90;;;;;;5054290;28;20236;-60
2022/10/10 09:02:00;;;;;;;6.40;2.33;;;19.70;99.90;;;;;;5053867;28;20216;-59
2022/10/10 09:04:32;;;;;;;4.95;2.25;;;19.90;99.90;;;;;;5053736;28;20231;-61
2022/10/10 09:07:13;;;;;;;3.50;2.70;;;20.10;99.90;;;;;;5054449;28;20216;-61
2022/10/10 09:09:50;;;;;;;4.13;2.30;;;20.10;99.90;;;;;;5053982;28;20229;-60
2022/10/10 09:12:27;;;;;;;5.50;2.47;;;20.00;99.90;;;;;;5053663;28;20209;-60
2022/10/10 09:14:59;;;;;;;4.45;2.60;;;20.10;99.90;;;;;;5052610;28;20275;-60
2022/10/10 09:17:37;;;;;;;4.43;2.40;;;20.30;99.90;;;;;;5025898;28;20205;-62
2022/10/10 09:20:17;;;;;;;2.45;2.00;;;20.50;99.90;;;;;;5033909;28;20599;-59
2022/10/10 09:22:57;;;;;;;3.00;2.08;;;20.50;99.90;;;;;;5033582;28;20214;-59
2022/10/10 09:25:27;;;;;;;9.27;2.33;;;20.50;99.90;;;;;;5033737;28;20222;-59
2022/10/10 09:28:03;;;;;;;4.38;2.30;;;20.60;99.90;;;;;;5033969;28;20619;-60
2022/10/10 09:30:34;;;;;;;3.58;2.10;;;20.60;99.90;;;;;;5034042;28;20214;-60
2022/10/10 09:33:07;;;;;;;9.95;6.20;;;20.80;99.90;;;;;;5032851;28;20673;-59
2022/10/10 09:35:38;;;;;;;3.40;1.98;;;20.80;99.90;;;;;;5033416;28;20243;-60
2022/10/10 09:38:22;;;;;;;5.57;2.40;;;20.80;99.90;;;;;;5033808;28;20234;-59
2022/10/10 09:40:55;;;;;;;10.05;2.80;;;20.90;99.90;;;;;;5032712;28;20622;-60
2022/10/10 09:43:29;;;;;;;6.38;3.35;;;20.90;99.90;;;;;;5033306;28;20206;-62
2022/10/10 09:45:56;;;;;;;4.78;2.67;;;20.90;99.90;;;;;;5033201;28;20263;-62
2022/10/10 09:48:27;;;;;;;6.43;2.97;;;21.00;99.90;;;;;;5033751;28;20202;-59
2022/10/10 09:50:55;;;;;;;6.65;4.22;;;21.20;99.90;;;;;;5032801;28;20217;-60
2022/10/10 09:53:22;;;;;;;6.80;3.80;;;21.40;99.90;;;;;;5032285;28;20301;-60
2022/10/10 09:55:50;;;;;;;4.25;2.53;;;21.60;99.90;;;;;;5032854;28;20226;-62
2022/10/10 09:58:27;;;;;;;5.95;2.20;;;21.80;99.90;;;;;;5033439;28;20897;-61
2022/10/10 10:00:54;;;;;;;8.52;3.00;;;22.00;99.90;;;;;;5032798;28;20206;-61
2022/10/10 10:03:22;;;;;;;5.90;2.45;;;22.10;99.90;;;;;;5032997;28;20206;-60
2022/10/10 10:05:57;;;;;;;4.70;2.35;;;22.30;99.90;;;;;;5032888;28;20608;-61
2022/10/10 10:08:27;;;;;;;5.25;2.40;;;22.40;99.90;;;;;;5033342;28;20201;-60
2022/10/10 10:10:56;;;;;;;5.10;2.83;;;22.50;99.90;;;;;;5032150;28;20228;-58
2022/10/10 10:13:27;;;;;;;5.18;3.58;;;22.60;99.90;;;;;;5032946;28;20239;-59
2022/10/10 10:16:00;;;;;;;7.50;3.30;;;22.70;99.90;;;;;;5032725;28;20230;-59
2022/10/10 10:18:28;;;;;;;9.30;5.47;;;22.90;99.90;;;;;;5032985;28;20226;-60
2022/10/10 10:21:19;;;;;;;3.20;2.22;;;23.20;99.90;;;;;;5032336;28;20210;-61
2022/10/10 10:23:52;;;;;;;5.95;3.80;;;23.20;99.90;;;;;;5033095;28;20217;-60
2022/10/10 10:26:21;;;;;;;5.65;3.63;;;23.30;99.90;;;;;;5033165;28;20210;-62
2022/10/10 10:28:50;;;;;;;7.68;3.17;;;23.40;99.90;;;;;;5032880;28;20205;-62
2022/10/10 10:31:27;;;;;;;10.18;2.70;;;23.60;99.90;;;;;;5032050;28;20207;-61
2022/10/10 10:34:10;;;;;;;8.38;3.72;;;23.70;99.90;;;;;;5032344;28;20208;-61
2022/10/10 10:36:48;;;;;;;5.38;3.65;;;24.00;99.90;;;;;;5032545;28;20232;-59
2022/10/10 10:39:29;;;;;;;5.40;2.15;;;24.20;99.90;;;;;;5032893;28;20229;-58
2022/10/10 10:42:02;;;;;;;5.15;1.98;;;24.50;99.90;;;;;;5032096;28;20214;-58
2022/10/10 10:44:37;;;;;;;5.65;2.28;;;24.60;99.90;;;;;;5032360;28;20768;-60
2022/10/10 10:47:17;;;;;;;10.02;3.83;;;24.50;99.90;;;;;;5032088;28;20213;-59
2022/10/10 10:49:52;;;;;;;3.67;1.80;;;24.40;99.90;;;;;;5032768;28;20198;-59
2022/10/10 10:52:42;;;;;;;5.47;2.10;;;24.50;99.90;;;;;;5032021;28;20212;-61
2022/10/10 10:55:18;;;;;;;3.50;2.28;;;24.60;99.90;;;;;;5029530;28;20226;-60
2022/10/10 10:57:57;;;;;;;8.00;2.40;;;24.70;99.90;;;;;;5032587;28;20510;-61
2022/10/10 11:00:23;;;;;;;5.20;2.10;;;24.80;99.90;;;;;;5032048;28;20345;-64
2022/10/10 11:03:07;;;;;;;5.40;1.90;;;24.90;99.90;;;;;;5031800;28;20217;-65
2022/10/10 11:05:36;;;;;;;4.60;2.10;;;24.80;99.90;;;;;;5032603;28;20230;-62
2022/10/10 11:08:21;;;;;;;3.75;2.03;;;25.00;99.90;;;;;;5032094;28;20222;-62
2022/10/10 11:11:00;;;;;;;5.53;2.10;;;25.10;99.90;;;;;;5031761;28;20675;-60
2022/10/10 11:13:34;;;;;;;4.90;2.40;;;25.30;99.90;;;;;;5032138;28;20205;-63
2022/10/10 11:16:09;;;;;;;8.00;1.77;;;25.40;99.90;;;;;;5032041;28;20718;-64
2022/10/10 11:18:42;;;;;;;5.53;3.05;;;25.60;99.90;;;;;;5031798;28;20597;-62
2022/10/10 11:21:15;;;;;;;6.38;2.78;;;25.70;99.90;;;;;;5031139;28;20206;-61
2022/10/10 11:23:48;;;;;;;6.50;2.88;;;25.80;99.90;;;;;;5031731;28;20218;-60
2022/10/10 11:26:21;;;;;;;7.85;2.33;;;25.80;99.90;;;;;;5032122;28;20652;-60
2022/10/10 11:28:55;;;;;;;8.55;2.13;;;25.80;99.90;;;;;;5031824;28;20202;-57
2022/10/10 11:31:27;;;;;;;5.45;2.22;;;25.70;99.90;;;;;;5031371;28;20222;-59
2022/10/10 11:34:01;;;;;;;7.72;3.80;;;25.40;99.90;;;;;;5031461;28;20217;-58
2022/10/10 11:36:31;;;;;;;4.95;2.67;;;25.10;99.90;;;;;;5031679;28;20206;-56
2022/10/10 11:39:04;;;;;;;4.28;2.15;;;25.00;99.90;;;;;;5031373;28;20523;-60
2022/10/10 11:41:35;;;;;;;6.47;2.10;;;24.80;99.90;;;;;;5030941;28;20221;-61
2022/10/10 11:44:08;;;;;;;6.38;2.13;;;24.70;99.90;;;;;;5031124;28;20237;-57
2022/10/10 11:46:40;;;;;;;9.13;2.90;;;24.60;99.90;;;;;;5031062;28;20207;-60
2022/10/10 11:49:12;;;;;;;5.13;1.95;;;24.50;99.90;;;;;;5031359;28;20206;-62
2022/10/10 11:51:48;;;;;;;7.65;2.33;;;24.50;99.90;;;;;;5030489;28;20680;-60
2022/10/10 11:54:25;;;;;;;5.22;1.90;;;24.50;99.90;;;;;;5031437;28;20248;-58
2022/10/10 11:56:56;;;;;;;10.10;2.17;;;24.40;99.90;;;;;;5031189;28;20221;-57
2022/10/10 11:59:27;;;;;;;8.95;2.50;;;24.30;99.90;;;;;;5030757;28;20614;-56
2022/10/10 12:01:57;;;;;;;8.15;2.30;;;24.30;99.90;;;;;;5030596;28;20210;-57
2022/10/10 12:04:24;;;;;;;9.80;2.67;;;24.30;99.90;;;;;;5030822;28;20233;-56
2022/10/10 12:06:56;;;;;;;13.50;2.72;;;24.50;99.90;;;;;;5031392;28;20217;-59
2022/10/10 12:09:29;;;;;;;8.48;2.60;;;24.50;99.90;;;;;;5031118;28;20206;-58
2022/10/10 12:11:59;;;;;;;9.45;2.10;;;24.50;99.90;;;;;;5029778;28;20677;-60
2022/10/10 12:14:30;;;;;;;5.88;2.10;;;24.50;99.90;;;;;;5030568;28;20280;-57
2022/10/10 12:16:57;;;;;;;9.07;2.72;;;24.40;99.90;;;;;;5030754;28;20662;-58
2022/10/10 12:19:26;;;;;;;6.18;2.35;;;24.40;99.90;;;;;;5030572;28;20595;-56
2022/10/10 12:21:58;;;;;;;11.35;2.53;;;24.40;99.90;;;;;;5030464;28;20249;-56
2022/10/10 12:24:28;;;;;;;5.88;2.38;;;24.50;99.90;;;;;;5030920;28;20608;-59
2022/10/10 12:27:30;;;;;;;9.13;2.47;;;24.50;99.90;;;;;;5030893;28;20221;-60
2022/10/10 12:30:18;;;;;;;10.13;3.03;;;24.50;99.90;;;;;;5028235;28;20670;-58
2022/10/10 12:32:46;;;;;;;6.88;2.40;;;24.50;99.90;;;;;;5030454;28;20209;-64
2022/10/10 12:35:38;;;;;;;6.30;2.20;;;24.60;99.90;;;;;;5031243;28;20238;-60
2022/10/10 12:38:22;;;;;;;6.95;2.33;;;24.60;99.90;;;;;;5017057;28;20206;-60
2022/10/10 12:41:10;;;;;;;6.80;2.20;;;24.70;99.90;;;;;;5030263;28;20206;-60
2022/10/10 12:43:40;;;;;;;10.68;2.50;;;24.70;99.90;;;;;;5031609;28;20674;-61
2022/10/10 12:46:28;;;;;;;8.45;2.55;;;24.80;99.90;;;;;;5031673;28;20235;-60
2022/10/10 12:49:05;;;;;;;9.73;2.47;;;24.80;99.90;;;;;;5031322;28;20202;-60
2022/10/10 12:51:35;;;;;;;7.15;2.40;;;24.80;99.90;;;;;;5031180;28;20295;-61
2022/10/10 12:54:04;;;;;;;6.63;3.10;;;24.80;99.90;;;;;;5031893;28;20226;-62
2022/10/10 12:56:44;;;;;;;6.60;2.47;;;24.80;99.90;;;;;;5031673;28;20205;-61
2022/10/10 12:59:20;;;;;;;7.70;2.60;;;24.70;99.90;;;;;;5031343;28;20242;-61
2022/10/10 13:01:52;;;;;;;5.45;2.45;;;24.60;99.90;;;;;;5031304;28;20217;-61